sensor_id;sensor_type;location;lat;lon;timestamp;temperature;humidity
27896;DHT22;15241;48.374;10.876;2022-08-19T00:02:22;20.80;99.90
27896;DHT22;15241;48.374;10.876;2022-08-19T00:07:21;20.80;99.90
27896;DHT22;15241;48.374;10.876;2022-08-19T00:12:20;20.70;99.90
27896;DHT22;15241;48.374;10.876;2022-08-19T00:17:22;20.60;99.90
27896;DHT22;15241;48.374;10.876;2022-08-19T00:22:20;20.70;99.90
27896;DHT22;15241;48.374;10.876;2022-08-19T00:27:19;20.70;99.90
27896;DHT22;15241;48.374;10.876;2022-08-19T00:32:18;20.40;99.90
27896;DHT22;15241;48.374;10.876;2022-08-19T00:37:17;20.30;99.90
27896;DHT22;15241;48.374;10.876;2022-08-19T00:42:16;20.20;99.90
27896;DHT22;15241;48.374;10.876;2022-08-19T00:47:16;20.20;99.90
27896;DHT22;15241;48.374;10.876;2022-08-19T00:52:17;20.20;99.90
27896;DHT22;15241;48.374;10.876;2022-08-19T00:57:18;20.20;99.90
27896;DHT22;15241;48.374;10.876;2022-08-19T01:02:18;20.20;99.90
27896;DHT22;15241;48.374;10.876;2022-08-19T01:07:18;20.10;99.90
27896;DHT22;15241;48.374;10.876;2022-08-19T01:12:17;20.00;99.90
27896;DHT22;15241;48.374;10.876;2022-08-19T01:17:17;20.10;99.90
27896;DHT22;15241;48.374;10.876;2022-08-19T01:22:19;20.10;99.90
27896;DHT22;15241;48.374;10.876;2022-08-19T01:27:19;20.10;99.90
27896;DHT22;15241;48.374;10.876;2022-08-19T01:32:18;20.10;99.90
27896;DHT22;15241;48.374;10.876;2022-08-19T01:37:17;20.00;99.90
27896;DHT22;15241;48.374;10.876;2022-08-19T01:42:16;20.10;99.90
27896;DHT22;15241;48.374;10.876;2022-08-19T01:47:15;20.00;99.90
27896;DHT22;15241;48.374;10.876;2022-08-19T01:52:14;20.10;99.90
27896;DHT22;15241;48.374;10.876;2022-08-19T01:57:14;20.10;99.90
27896;DHT22;15241;48.374;10.876;2022-08-19T02:02:13;20.10;99.90
27896;DHT22;15241;48.374;10.876;2022-08-19T02:07:12;20.20;99.90
27896;DHT22;15241;48.374;10.876;2022-08-19T02:12:11;20.20;99.90
27896;DHT22;15241;48.374;10.876;2022-08-19T02:17:10;20.20;99.90
27896;DHT22;15241;48.374;10.876;2022-08-19T02:22:09;20.20;99.90
27896;DHT22;15241;48.374;10.876;2022-08-19T02:27:08;20.10;99.90
27896;DHT22;15241;48.374;10.876;2022-08-19T02:32:07;20.10;99.90
27896;DHT22;15241;48.374;10.876;2022-08-19T02:37:06;20.20;99.90
27896;DHT22;15241;48.374;10.876;2022-08-19T02:42:06;20.10;99.90
27896;DHT22;15241;48.374;10.876;2022-08-19T02:47:06;19.90;99.90
27896;DHT22;15241;48.374;10.876;2022-08-19T02:52:04;19.80;99.90
27896;DHT22;15241;48.374;10.876;2022-08-19T02:57:04;19.80;99.90
27896;DHT22;15241;48.374;10.876;2022-08-19T03:02:03;19.80;99.90
27896;DHT22;15241;48.374;10.876;2022-08-19T03:07:02;19.80;99.90
27896;DHT22;15241;48.374;10.876;2022-08-19T03:12:01;19.80;99.90
27896;DHT22;15241;48.374;10.876;2022-08-19T03:17:01;19.90;99.90
27896;DHT22;15241;48.374;10.876;2022-08-19T03:22:00;19.90;99.90
27896;DHT22;15241;48.374;10.876;2022-08-19T03:26:59;20.00;99.90
27896;DHT22;15241;48.374;10.876;2022-08-19T03:31:59;20.00;99.90
27896;DHT22;15241;48.374;10.876;2022-08-19T03:37:03;20.00;99.90
27896;DHT22;15241;48.374;10.876;2022-08-19T03:41:59;20.10;99.90
27896;DHT22;15241;48.374;10.876;2022-08-19T03:46:59;20.10;99.90
27896;DHT22;15241;48.374;10.876;2022-08-19T03:51:59;19.90;99.90
27896;DHT22;15241;48.374;10.876;2022-08-19T03:56:58;20.00;99.90
27896;DHT22;15241;48.374;10.876;2022-08-19T04:01:59;19.90;99.90
27896;DHT22;15241;48.374;10.876;2022-08-19T04:06:58;19.90;99.90
27896;DHT22;15241;48.374;10.876;2022-08-19T04:11:58;20.00;99.90
27896;DHT22;15241;48.374;10.876;2022-08-19T04:16:57;20.00;99.90
27896;DHT22;15241;48.374;10.876;2022-08-19T04:21:56;20.00;99.90
27896;DHT22;15241;48.374;10.876;2022-08-19T04:26:55;20.10;99.90
27896;DHT22;15241;48.374;10.876;2022-08-19T04:31:55;20.10;99.90
27896;DHT22;15241;48.374;10.876;2022-08-19T04:36:56;20.10;99.90
27896;DHT22;15241;48.374;10.876;2022-08-19T04:41:56;20.10;99.90
27896;DHT22;15241;48.374;10.876;2022-08-19T04:46:55;20.10;99.90
27896;DHT22;15241;48.374;10.876;2022-08-19T04:51:54;20.20;99.90
27896;DHT22;15241;48.374;10.876;2022-08-19T04:56:54;20.10;99.90
27896;DHT22;15241;48.374;10.876;2022-08-19T05:01:53;20.20;99.90
27896;DHT22;15241;48.374;10.876;2022-08-19T05:06:51;20.30;99.90
27896;DHT22;15241;48.374;10.876;2022-08-19T05:11:50;20.20;99.90
27896;DHT22;15241;48.374;10.876;2022-08-19T05:16:49;20.10;99.90
27896;DHT22;15241;48.374;10.876;2022-08-19T05:21:48;20.10;99.90
27896;DHT22;15241;48.374;10.876;2022-08-19T05:26:49;20.10;99.90
27896;DHT22;15241;48.374;10.876;2022-08-19T05:31:49;20.10;99.90
27896;DHT22;15241;48.374;10.876;2022-08-19T05:36:50;20.20;99.90
27896;DHT22;15241;48.374;10.876;2022-08-19T05:41:50;20.30;99.90
27896;DHT22;15241;48.374;10.876;2022-08-19T05:46:49;20.30;99.90
27896;DHT22;15241;48.374;10.876;2022-08-19T05:51:49;20.40;99.90
27896;DHT22;15241;48.374;10.876;2022-08-19T05:56:48;20.30;99.90
27896;DHT22;15241;48.374;10.876;2022-08-19T06:01:47;20.40;99.90
27896;DHT22;15241;48.374;10.876;2022-08-19T06:06:47;20.50;99.90
27896;DHT22;15241;48.374;10.876;2022-08-19T06:11:48;20.60;99.90
27896;DHT22;15241;48.374;10.876;2022-08-19T06:16:47;20.50;99.90
27896;DHT22;15241;48.374;10.876;2022-08-19T06:21:48;20.50;99.90
27896;DHT22;15241;48.374;10.876;2022-08-19T06:26:49;20.50;99.90
27896;DHT22;15241;48.374;10.876;2022-08-19T06:31:51;20.50;99.90
27896;DHT22;15241;48.374;10.876;2022-08-19T06:36:51;20.60;99.90
27896;DHT22;15241;48.374;10.876;2022-08-19T06:41:53;20.60;99.90
27896;DHT22;15241;48.374;10.876;2022-08-19T06:46:53;20.60;99.90
27896;DHT22;15241;48.374;10.876;2022-08-19T06:51:52;20.60;99.90
27896;DHT22;15241;48.374;10.876;2022-08-19T06:56:51;20.60;99.90
27896;DHT22;15241;48.374;10.876;2022-08-19T07:01:53;20.60;99.90
27896;DHT22;15241;48.374;10.876;2022-08-19T07:06:58;20.60;99.90
27896;DHT22;15241;48.374;10.876;2022-08-19T07:11:58;20.60;99.90
27896;DHT22;15241;48.374;10.876;2022-08-19T07:16:57;20.60;99.90
27896;DHT22;15241;48.374;10.876;2022-08-19T07:21:57;20.60;99.90
27896;DHT22;15241;48.374;10.876;2022-08-19T07:26:59;20.70;99.90
27896;DHT22;15241;48.374;10.876;2022-08-19T07:32:00;20.70;99.90
27896;DHT22;15241;48.374;10.876;2022-08-19T07:36:59;20.70;99.90
27896;DHT22;15241;48.374;10.876;2022-08-19T07:42:01;20.70;99.90
27896;DHT22;15241;48.374;10.876;2022-08-19T07:47:01;20.70;99.90
27896;DHT22;15241;48.374;10.876;2022-08-19T07:52:04;20.60;99.90
27896;DHT22;15241;48.374;10.876;2022-08-19T07:57:05;20.60;99.90
27896;DHT22;15241;48.374;10.876;2022-08-19T08:02:04;20.50;99.90
27896;DHT22;15241;48.374;10.876;2022-08-19T08:12:13;20.50;99.90
27896;DHT22;15241;48.374;10.876;2022-08-19T08:17:13;20.60;99.90
27896;DHT22;15241;48.374;10.876;2022-08-19T08:22:14;20.60;99.90
27896;DHT22;15241;48.374;10.876;2022-08-19T08:27:13;20.60;99.90
27896;DHT22;15241;48.374;10.876;2022-08-19T08:32:12;20.60;99.90
27896;DHT22;15241;48.374;10.876;2022-08-19T08:37:11;20.60;99.90
27896;DHT22;15241;48.374;10.876;2022-08-19T08:42:13;20.60;99.90
27896;DHT22;15241;48.374;10.876;2022-08-19T08:47:15;20.60;99.90
27896;DHT22;15241;48.374;10.876;2022-08-19T08:52:18;20.60;99.90
27896;DHT22;15241;48.374;10.876;2022-08-19T09:02:26;20.70;99.90
27896;DHT22;15241;48.374;10.876;2022-08-19T09:07:31;20.70;99.90
27896;DHT22;15241;48.374;10.876;2022-08-19T09:17:43;20.80;99.90
27896;DHT22;15241;48.374;10.876;2022-08-19T09:22:43;20.90;99.90
27896;DHT22;15241;48.374;10.876;2022-08-19T09:27:43;20.90;99.90
27896;DHT22;15241;48.374;10.876;2022-08-19T09:32:43;20.90;99.90
27896;DHT22;15241;48.374;10.876;2022-08-19T09:37:43;20.90;99.90
27896;DHT22;15241;48.374;10.876;2022-08-19T09:42:42;20.90;99.90
27896;DHT22;15241;48.374;10.876;2022-08-19T09:47:42;21.00;99.90
27896;DHT22;15241;48.374;10.876;2022-08-19T09:52:41;20.80;99.90
27896;DHT22;15241;48.374;10.876;2022-08-19T09:57:40;20.80;99.90
27896;DHT22;15241;48.374;10.876;2022-08-19T10:02:38;20.80;99.90
27896;DHT22;15241;48.374;10.876;2022-08-19T10:07:39;20.80;99.90
27896;DHT22;15241;48.374;10.876;2022-08-19T10:12:38;20.70;99.90
27896;DHT22;15241;48.374;10.876;2022-08-19T10:17:38;20.80;99.90
27896;DHT22;15241;48.374;10.876;2022-08-19T10:22:37;20.80;99.90
27896;DHT22;15241;48.374;10.876;2022-08-19T10:27:39;20.70;99.90
27896;DHT22;15241;48.374;10.876;2022-08-19T10:32:38;20.60;99.90
27896;DHT22;15241;48.374;10.876;2022-08-19T10:37:38;20.60;99.90
27896;DHT22;15241;48.374;10.876;2022-08-19T10:42:37;20.60;99.90
27896;DHT22;15241;48.374;10.876;2022-08-19T10:47:36;20.60;99.90
27896;DHT22;15241;48.374;10.876;2022-08-19T10:52:35;20.60;99.90
27896;DHT22;15241;48.374;10.876;2022-08-19T10:57:34;20.60;99.90
27896;DHT22;15241;48.374;10.876;2022-08-19T11:02:34;20.50;99.90
27896;DHT22;15241;48.374;10.876;2022-08-19T11:07:33;20.40;99.90
27896;DHT22;15241;48.374;10.876;2022-08-19T11:12:32;20.20;99.90
27896;DHT22;15241;48.374;10.876;2022-08-19T11:17:31;19.80;99.90
27896;DHT22;15241;48.374;10.876;2022-08-19T11:22:30;19.60;99.90
27896;DHT22;15241;48.374;10.876;2022-08-19T11:27:29;19.70;99.90
27896;DHT22;15241;48.374;10.876;2022-08-19T11:32:28;19.80;99.90
27896;DHT22;15241;48.374;10.876;2022-08-19T11:37:28;19.90;99.90
27896;DHT22;15241;48.374;10.876;2022-08-19T11:42:27;19.90;99.90
27896;DHT22;15241;48.374;10.876;2022-08-19T11:47:26;20.00;99.90
27896;DHT22;15241;48.374;10.876;2022-08-19T11:52:25;20.00;99.90
27896;DHT22;15241;48.374;10.876;2022-08-19T12:02:30;19.80;99.90
27896;DHT22;15241;48.374;10.876;2022-08-19T12:11:41;19.90;99.90
27896;DHT22;15241;48.374;10.876;2022-08-19T12:16:40;19.80;99.90
27896;DHT22;15241;48.374;10.876;2022-08-19T12:21:39;19.90;99.90
27896;DHT22;15241;48.374;10.876;2022-08-19T12:26:38;19.90;99.90
27896;DHT22;15241;48.374;10.876;2022-08-19T12:31:38;19.90;99.90
27896;DHT22;15241;48.374;10.876;2022-08-19T12:36:38;20.00;99.90
27896;DHT22;15241;48.374;10.876;2022-08-19T12:41:37;20.00;99.90
27896;DHT22;15241;48.374;10.876;2022-08-19T12:46:36;20.10;99.90
27896;DHT22;15241;48.374;10.876;2022-08-19T12:51:35;20.30;99.90
27896;DHT22;15241;48.374;10.876;2022-08-19T12:56:34;20.30;99.90
27896;DHT22;15241;48.374;10.876;2022-08-19T13:01:34;20.50;99.90
27896;DHT22;15241;48.374;10.876;2022-08-19T13:06:33;20.70;99.90
27896;DHT22;15241;48.374;10.876;2022-08-19T13:11:32;20.90;99.90
27896;DHT22;15241;48.374;10.876;2022-08-19T13:16:32;21.30;99.90
27896;DHT22;15241;48.374;10.876;2022-08-19T13:21:31;21.60;99.90
27896;DHT22;15241;48.374;10.876;2022-08-19T13:26:30;21.80;99.90
27896;DHT22;15241;48.374;10.876;2022-08-19T13:31:31;21.90;99.90
27896;DHT22;15241;48.374;10.876;2022-08-19T13:36:30;21.80;99.90
27896;DHT22;15241;48.374;10.876;2022-08-19T13:41:29;21.90;99.90
27896;DHT22;15241;48.374;10.876;2022-08-19T13:46:28;21.80;99.90
27896;DHT22;15241;48.374;10.876;2022-08-19T13:51:27;21.90;99.90
27896;DHT22;15241;48.374;10.876;2022-08-19T13:56:26;21.80;99.90
27896;DHT22;15241;48.374;10.876;2022-08-19T14:01:25;21.60;99.90
27896;DHT22;15241;48.374;10.876;2022-08-19T14:06:24;21.50;99.90
27896;DHT22;15241;48.374;10.876;2022-08-19T14:11:23;21.30;99.90
27896;DHT22;15241;48.374;10.876;2022-08-19T14:16:22;21.20;99.90
27896;DHT22;15241;48.374;10.876;2022-08-19T14:21:23;21.00;99.90
27896;DHT22;15241;48.374;10.876;2022-08-19T14:26:23;21.00;99.90
27896;DHT22;15241;48.374;10.876;2022-08-19T14:31:22;20.80;99.90
27896;DHT22;15241;48.374;10.876;2022-08-19T14:36:21;20.70;99.90
27896;DHT22;15241;48.374;10.876;2022-08-19T14:41:22;20.70;99.90
27896;DHT22;15241;48.374;10.876;2022-08-19T14:46:22;20.70;99.90
27896;DHT22;15241;48.374;10.876;2022-08-19T14:51:24;20.80;99.90
27896;DHT22;15241;48.374;10.876;2022-08-19T14:56:26;20.60;99.90
27896;DHT22;15241;48.374;10.876;2022-08-19T15:01:26;20.80;99.90
27896;DHT22;15241;48.374;10.876;2022-08-19T15:06:26;20.90;99.90
27896;DHT22;15241;48.374;10.876;2022-08-19T15:11:26;20.80;99.90
27896;DHT22;15241;48.374;10.876;2022-08-19T15:16:26;20.80;99.90
27896;DHT22;15241;48.374;10.876;2022-08-19T15:21:26;20.70;99.90
27896;DHT22;15241;48.374;10.876;2022-08-19T15:26:25;20.60;99.90
27896;DHT22;15241;48.374;10.876;2022-08-19T15:31:24;20.50;99.90
27896;DHT22;15241;48.374;10.876;2022-08-19T15:36:24;20.50;99.90
27896;DHT22;15241;48.374;10.876;2022-08-19T15:41:26;20.50;99.90
27896;DHT22;15241;48.374;10.876;2022-08-19T15:46:26;20.50;99.90
27896;DHT22;15241;48.374;10.876;2022-08-19T15:51:27;20.50;99.90
27896;DHT22;15241;48.374;10.876;2022-08-19T15:56:27;20.50;99.90
27896;DHT22;15241;48.374;10.876;2022-08-19T16:01:26;20.50;99.90
27896;DHT22;15241;48.374;10.876;2022-08-19T16:06:26;20.50;99.90
27896;DHT22;15241;48.374;10.876;2022-08-19T16:11:27;20.40;99.90
27896;DHT22;15241;48.374;10.876;2022-08-19T16:16:28;20.40;99.90
27896;DHT22;15241;48.374;10.876;2022-08-19T16:21:29;20.40;99.90
27896;DHT22;15241;48.374;10.876;2022-08-19T16:26:28;20.50;99.90
27896;DHT22;15241;48.374;10.876;2022-08-19T16:31:27;20.50;99.90
27896;DHT22;15241;48.374;10.876;2022-08-19T16:36:26;20.40;99.90
27896;DHT22;15241;48.374;10.876;2022-08-19T16:41:25;20.50;99.90
27896;DHT22;15241;48.374;10.876;2022-08-19T16:46:25;20.40;99.90
27896;DHT22;15241;48.374;10.876;2022-08-19T16:51:23;20.40;99.90
27896;DHT22;15241;48.374;10.876;2022-08-19T16:56:23;20.40;99.90
27896;DHT22;15241;48.374;10.876;2022-08-19T17:01:22;20.40;99.90
27896;DHT22;15241;48.374;10.876;2022-08-19T17:06:23;20.30;99.90
27896;DHT22;15241;48.374;10.876;2022-08-19T17:11:24;20.30;99.90
27896;DHT22;15241;48.374;10.876;2022-08-19T17:16:26;20.30;99.90
27896;DHT22;15241;48.374;10.876;2022-08-19T17:21:27;20.20;99.90
27896;DHT22;15241;48.374;10.876;2022-08-19T17:26:27;20.10;99.90
27896;DHT22;15241;48.374;10.876;2022-08-19T17:31:27;20.10;99.90
27896;DHT22;15241;48.374;10.876;2022-08-19T17:36:28;20.00;99.90
27896;DHT22;15241;48.374;10.876;2022-08-19T17:41:28;20.00;99.90
27896;DHT22;15241;48.374;10.876;2022-08-19T17:46:27;19.90;99.90
27896;DHT22;15241;48.374;10.876;2022-08-19T17:51:39;19.80;99.90
27896;DHT22;15241;48.374;10.876;2022-08-19T17:56:37;19.80;99.90
27896;DHT22;15241;48.374;10.876;2022-08-19T18:01:36;19.80;99.90
27896;DHT22;15241;48.374;10.876;2022-08-19T18:06:35;19.70;99.90
27896;DHT22;15241;48.374;10.876;2022-08-19T18:11:35;19.70;99.90
27896;DHT22;15241;48.374;10.876;2022-08-19T18:16:34;19.60;99.90
27896;DHT22;15241;48.374;10.876;2022-08-19T18:21:33;19.60;99.90
27896;DHT22;15241;48.374;10.876;2022-08-19T18:26:32;19.50;99.90
27896;DHT22;15241;48.374;10.876;2022-08-19T18:31:31;19.50;99.90
27896;DHT22;15241;48.374;10.876;2022-08-19T18:36:30;19.30;99.90
27896;DHT22;15241;48.374;10.876;2022-08-19T18:41:29;19.10;99.90
27896;DHT22;15241;48.374;10.876;2022-08-19T18:46:28;19.10;99.90
27896;DHT22;15241;48.374;10.876;2022-08-19T18:51:27;19.20;99.90
27896;DHT22;15241;48.374;10.876;2022-08-19T18:56:27;19.10;99.90
27896;DHT22;15241;48.374;10.876;2022-08-19T19:01:27;19.20;99.90
27896;DHT22;15241;48.374;10.876;2022-08-19T19:06:30;19.10;99.90
27896;DHT22;15241;48.374;10.876;2022-08-19T19:11:31;19.20;99.90
27896;DHT22;15241;48.374;10.876;2022-08-19T19:16:31;19.10;99.90
27896;DHT22;15241;48.374;10.876;2022-08-19T19:21:30;19.10;99.90
27896;DHT22;15241;48.374;10.876;2022-08-19T19:26:29;19.00;99.90
27896;DHT22;15241;48.374;10.876;2022-08-19T19:31:28;18.90;99.90
27896;DHT22;15241;48.374;10.876;2022-08-19T19:36:27;18.80;99.90
27896;DHT22;15241;48.374;10.876;2022-08-19T19:41:26;18.80;99.90
27896;DHT22;15241;48.374;10.876;2022-08-19T19:46:25;18.80;99.90
27896;DHT22;15241;48.374;10.876;2022-08-19T19:51:24;18.90;99.90
27896;DHT22;15241;48.374;10.876;2022-08-19T19:56:23;18.80;99.90
27896;DHT22;15241;48.374;10.876;2022-08-19T20:01:23;18.90;99.90
27896;DHT22;15241;48.374;10.876;2022-08-19T20:06:22;18.80;99.90
27896;DHT22;15241;48.374;10.876;2022-08-19T20:16:37;18.80;99.90
27896;DHT22;15241;48.374;10.876;2022-08-19T20:21:37;18.80;99.90
27896;DHT22;15241;48.374;10.876;2022-08-19T20:26:37;18.70;99.90
27896;DHT22;15241;48.374;10.876;2022-08-19T20:31:36;18.70;99.90
27896;DHT22;15241;48.374;10.876;2022-08-19T20:36:35;18.70;99.90
27896;DHT22;15241;48.374;10.876;2022-08-19T20:41:35;18.70;99.90
27896;DHT22;15241;48.374;10.876;2022-08-19T20:46:34;18.70;99.90
27896;DHT22;15241;48.374;10.876;2022-08-19T20:51:33;18.80;99.90
27896;DHT22;15241;48.374;10.876;2022-08-19T20:56:32;18.90;99.90
27896;DHT22;15241;48.374;10.876;2022-08-19T21:01:31;18.90;99.90
27896;DHT22;15241;48.374;10.876;2022-08-19T21:06:30;18.80;99.90
27896;DHT22;15241;48.374;10.876;2022-08-19T21:11:29;18.90;99.90
27896;DHT22;15241;48.374;10.876;2022-08-19T21:16:28;19.00;99.90
27896;DHT22;15241;48.374;10.876;2022-08-19T21:21:28;19.00;99.90
27896;DHT22;15241;48.374;10.876;2022-08-19T21:26:27;19.00;99.90
27896;DHT22;15241;48.374;10.876;2022-08-19T21:31:26;19.00;99.90
27896;DHT22;15241;48.374;10.876;2022-08-19T21:36:25;18.80;99.90
27896;DHT22;15241;48.374;10.876;2022-08-19T21:41:23;18.90;99.90
27896;DHT22;15241;48.374;10.876;2022-08-19T21:46:22;18.90;99.90
27896;DHT22;15241;48.374;10.876;2022-08-19T21:51:21;18.80;99.90
27896;DHT22;15241;48.374;10.876;2022-08-19T21:56:20;18.70;99.90
27896;DHT22;15241;48.374;10.876;2022-08-19T22:01:19;18.70;99.90
27896;DHT22;15241;48.374;10.876;2022-08-19T22:06:18;18.80;99.90
27896;DHT22;15241;48.374;10.876;2022-08-19T22:11:17;18.80;99.90
27896;DHT22;15241;48.374;10.876;2022-08-19T22:16:16;18.70;99.90
27896;DHT22;15241;48.374;10.876;2022-08-19T22:21:15;18.70;99.90
27896;DHT22;15241;48.374;10.876;2022-08-19T22:26:15;18.70;99.90
27896;DHT22;15241;48.374;10.876;2022-08-19T22:31:14;18.70;99.90
27896;DHT22;15241;48.374;10.876;2022-08-19T22:36:13;18.80;99.90
27896;DHT22;15241;48.374;10.876;2022-08-19T22:41:12;18.70;99.90
27896;DHT22;15241;48.374;10.876;2022-08-19T22:46:11;18.70;99.90
27896;DHT22;15241;48.374;10.876;2022-08-19T22:51:10;18.70;99.90
27896;DHT22;15241;48.374;10.876;2022-08-19T22:56:10;18.70;99.90
27896;DHT22;15241;48.374;10.876;2022-08-19T23:01:10;18.70;99.90
27896;DHT22;15241;48.374;10.876;2022-08-19T23:06:11;18.70;99.90
27896;DHT22;15241;48.374;10.876;2022-08-19T23:11:10;18.70;99.90
27896;DHT22;15241;48.374;10.876;2022-08-19T23:16:10;18.80;99.90
27896;DHT22;15241;48.374;10.876;2022-08-19T23:21:10;18.90;99.90
27896;DHT22;15241;48.374;10.876;2022-08-19T23:26:09;18.90;99.90
27896;DHT22;15241;48.374;10.876;2022-08-19T23:31:08;18.80;99.90
27896;DHT22;15241;48.374;10.876;2022-08-19T23:36:10;18.80;99.90
27896;DHT22;15241;48.374;10.876;2022-08-19T23:41:11;18.70;99.90
27896;DHT22;15241;48.374;10.876;2022-08-19T23:46:11;18.60;99.90
27896;DHT22;15241;48.374;10.876;2022-08-19T23:51:12;18.60;99.90
27896;DHT22;15241;48.374;10.876;2022-08-19T23:56:11;18.60;99.90
